Airfield :
LOGIN :

Register | Disclaimer

   EN    FR    IT 

 










Legend :    VFR   Marginal VFR   IFR   Intensive IFR   Very Intensive IFR
Visi :
Ceiling :
>= 8 km
>= 3000ft
5 to 8 km
1000 to 3000 ft
1500m to 5 km
500 to 1000 ft
800 to 1500m
200 to 500 ft
< 800m
< 200 ft
Symbols :   Thunderstorms  Fog  Heavy snow  Heavy precipitations  Wind > 20 kt
SIGMETs :     Misc.  Thunderstorms  Icing  Turbulence  Mountain Waves  Volcanic Ashes






- Airport Elevation : 287 ft


LFRL - Lanveoc Poulmic

CURRENT METAR :
  • 051000Z AUTO 19015KT 9999 BKN011 OVC027 21/17 Q1014 TEMPO 20015G25KT BECMG BKN020

EXPIRED METARs :
  • 050930Z AUTO 20011KT 9999 BKN011 BKN022 OVC028 21/17 Q1014 TEMPO 20015G25KT BECMG BKN020
  • 050900Z AUTO 19015KT 9999 BKN013 BKN022 OVC027 20/16 Q1014 TEMPO 20015G25KT BECMG BKN020
  • 050830Z AUTO 19012KT 160V220 9999 BKN017 BKN027 20/16 Q1014 TEMPO 20015G25KT
  • 050800Z AUTO 19010KT 9999 SCT024 20/15 Q1014 TEMPO BKN007
  • 050730Z AUTO 18009KT 9999 BKN024 19/15 Q1014 TEMPO BKN007

TAF TAF LFRL
Valid from the 05 at 06:00 until the 06 at 06:00 UTC


050500Z 0506/0606 20008KT 9999 BKN020
PROB30
TEMPO 0506/0509 BKN007
TEMPO 0510/0518 20015G25KT
BECMG 0518/0521 BKN007 OVC014
TEMPO 0521/0606 3000 -DZ BKN003



MET'MAP, your aeronautical weather chart ! - Copyright ORBIFLY December 2007 - Disclaimer

ORBIFLY MET'MAP TEAM :

Programming & Development : Alexandra Zaïnal
Concept & original design : Baudouin d'Aumeries
Assistance for programming : Marc-Olivier Méhu
Technical & hardware support : Manuel Goepfert

Contact : metmap@orbifly.com




SOURCES & CREDITS :

   NOAA